sensor_id;sensor_type;location;lat;lon;timestamp;P1;durP1;ratioP1;P2;durP2;ratioP2
18263;SDS011;9258;48.668;9.172;2022-07-29T00:02:44;8.63;;;5.28;;
18263;SDS011;9258;48.668;9.172;2022-07-29T00:05:46;5.97;;;5.38;;
18263;SDS011;9258;48.668;9.172;2022-07-29T00:08:47;7.15;;;5.18;;
18263;SDS011;9258;48.668;9.172;2022-07-29T00:11:53;5.35;;;4.65;;
18263;SDS011;9258;48.668;9.172;2022-07-29T00:14:56;5.13;;;4.63;;
18263;SDS011;9258;48.668;9.172;2022-07-29T00:17:57;6.43;;;4.88;;
18263;SDS011;9258;48.668;9.172;2022-07-29T00:20:59;7.20;;;5.35;;
18263;SDS011;9258;48.668;9.172;2022-07-29T00:24:00;5.65;;;4.95;;
18263;SDS011;9258;48.668;9.172;2022-07-29T00:27:03;5.05;;;4.60;;
18263;SDS011;9258;48.668;9.172;2022-07-29T00:30:05;4.68;;;4.22;;
18263;SDS011;9258;48.668;9.172;2022-07-29T00:33:08;5.15;;;4.65;;
18263;SDS011;9258;48.668;9.172;2022-07-29T00:36:10;6.43;;;4.43;;
18263;SDS011;9258;48.668;9.172;2022-07-29T00:39:10;5.05;;;4.55;;
18263;SDS011;9258;48.668;9.172;2022-07-29T00:42:13;5.15;;;4.45;;
18263;SDS011;9258;48.668;9.172;2022-07-29T00:45:15;6.57;;;4.65;;
18263;SDS011;9258;48.668;9.172;2022-07-29T00:48:17;5.93;;;4.18;;
18263;SDS011;9258;48.668;9.172;2022-07-29T00:51:18;4.63;;;4.20;;
18263;SDS011;9258;48.668;9.172;2022-07-29T00:54:20;4.57;;;3.88;;
18263;SDS011;9258;48.668;9.172;2022-07-29T00:57:23;4.00;;;3.58;;
18263;SDS011;9258;48.668;9.172;2022-07-29T01:00:25;4.50;;;3.80;;
18263;SDS011;9258;48.668;9.172;2022-07-29T01:03:27;4.70;;;3.83;;
18263;SDS011;9258;48.668;9.172;2022-07-29T01:06:29;3.60;;;3.30;;
18263;SDS011;9258;48.668;9.172;2022-07-29T01:09:31;4.13;;;3.72;;
18263;SDS011;9258;48.668;9.172;2022-07-29T01:12:35;4.38;;;4.03;;
18263;SDS011;9258;48.668;9.172;2022-07-29T01:15:40;3.53;;;3.22;;
18263;SDS011;9258;48.668;9.172;2022-07-29T01:18:45;3.97;;;3.63;;
18263;SDS011;9258;48.668;9.172;2022-07-29T01:21:51;5.90;;;3.55;;
18263;SDS011;9258;48.668;9.172;2022-07-29T01:25:05;3.97;;;3.10;;
18263;SDS011;9258;48.668;9.172;2022-07-29T01:28:39;5.72;;;3.88;;
18263;SDS011;9258;48.668;9.172;2022-07-29T01:31:48;3.63;;;3.33;;
18263;SDS011;9258;48.668;9.172;2022-07-29T01:34:56;4.10;;;3.30;;
18263;SDS011;9258;48.668;9.172;2022-07-29T01:38:05;4.45;;;3.53;;
18263;SDS011;9258;48.668;9.172;2022-07-29T01:41:09;3.65;;;3.00;;
18263;SDS011;9258;48.668;9.172;2022-07-29T01:44:18;4.45;;;4.05;;
18263;SDS011;9258;48.668;9.172;2022-07-29T01:47:25;5.22;;;3.65;;
18263;SDS011;9258;48.668;9.172;2022-07-29T01:50:33;3.97;;;3.35;;
18263;SDS011;9258;48.668;9.172;2022-07-29T01:53:37;3.78;;;3.47;;
18263;SDS011;9258;48.668;9.172;2022-07-29T01:56:45;4.68;;;3.70;;
18263;SDS011;9258;48.668;9.172;2022-07-29T01:59:52;5.13;;;3.78;;
18263;SDS011;9258;48.668;9.172;2022-07-29T02:02:58;4.35;;;3.90;;
18263;SDS011;9258;48.668;9.172;2022-07-29T02:06:04;4.43;;;4.03;;
18263;SDS011;9258;48.668;9.172;2022-07-29T02:09:09;5.30;;;3.88;;
18263;SDS011;9258;48.668;9.172;2022-07-29T02:12:13;5.25;;;4.28;;
18263;SDS011;9258;48.668;9.172;2022-07-29T02:15:18;4.45;;;3.40;;
18263;SDS011;9258;48.668;9.172;2022-07-29T02:18:21;5.57;;;3.75;;
18263;SDS011;9258;48.668;9.172;2022-07-29T02:21:25;3.67;;;3.38;;
18263;SDS011;9258;48.668;9.172;2022-07-29T02:24:28;5.03;;;3.72;;
18263;SDS011;9258;48.668;9.172;2022-07-29T02:27:31;4.53;;;4.13;;
18263;SDS011;9258;48.668;9.172;2022-07-29T02:30:39;3.78;;;3.47;;
18263;SDS011;9258;48.668;9.172;2022-07-29T02:33:42;4.00;;;3.53;;
18263;SDS011;9258;48.668;9.172;2022-07-29T02:36:47;4.30;;;3.72;;
18263;SDS011;9258;48.668;9.172;2022-07-29T02:39:50;4.40;;;4.00;;
18263;SDS011;9258;48.668;9.172;2022-07-29T02:42:53;4.25;;;3.63;;
18263;SDS011;9258;48.668;9.172;2022-07-29T02:45:56;4.78;;;3.97;;
18263;SDS011;9258;48.668;9.172;2022-07-29T02:49:02;4.32;;;3.90;;
18263;SDS011;9258;48.668;9.172;2022-07-29T02:52:08;4.20;;;3.80;;
18263;SDS011;9258;48.668;9.172;2022-07-29T02:55:18;6.10;;;3.78;;
18263;SDS011;9258;48.668;9.172;2022-07-29T02:58:27;5.22;;;4.53;;
18263;SDS011;9258;48.668;9.172;2022-07-29T03:01:32;4.93;;;4.28;;
18263;SDS011;9258;48.668;9.172;2022-07-29T03:04:35;4.38;;;4.00;;
18263;SDS011;9258;48.668;9.172;2022-07-29T03:07:40;4.82;;;4.38;;
18263;SDS011;9258;48.668;9.172;2022-07-29T03:10:46;4.90;;;4.50;;
18263;SDS011;9258;48.668;9.172;2022-07-29T03:13:49;4.88;;;4.38;;
18263;SDS011;9258;48.668;9.172;2022-07-29T03:16:52;5.50;;;4.82;;
18263;SDS011;9258;48.668;9.172;2022-07-29T03:19:54;4.82;;;3.90;;
18263;SDS011;9258;48.668;9.172;2022-07-29T03:22:56;5.15;;;4.22;;
18263;SDS011;9258;48.668;9.172;2022-07-29T03:25:57;4.65;;;4.25;;
18263;SDS011;9258;48.668;9.172;2022-07-29T03:28:59;4.53;;;4.03;;
18263;SDS011;9258;48.668;9.172;2022-07-29T03:32:03;6.03;;;4.20;;
18263;SDS011;9258;48.668;9.172;2022-07-29T03:35:06;4.38;;;3.97;;
18263;SDS011;9258;48.668;9.172;2022-07-29T03:38:08;4.88;;;4.38;;
18263;SDS011;9258;48.668;9.172;2022-07-29T03:41:10;4.97;;;4.10;;
18263;SDS011;9258;48.668;9.172;2022-07-29T03:44:14;5.38;;;4.10;;
18263;SDS011;9258;48.668;9.172;2022-07-29T03:47:19;4.50;;;3.55;;
18263;SDS011;9258;48.668;9.172;2022-07-29T03:50:25;5.68;;;3.97;;
18263;SDS011;9258;48.668;9.172;2022-07-29T03:53:28;3.90;;;3.50;;
18263;SDS011;9258;48.668;9.172;2022-07-29T03:56:30;4.20;;;3.50;;
18263;SDS011;9258;48.668;9.172;2022-07-29T03:59:36;4.03;;;3.20;;
18263;SDS011;9258;48.668;9.172;2022-07-29T04:02:39;3.75;;;3.45;;
18263;SDS011;9258;48.668;9.172;2022-07-29T04:05:44;4.93;;;3.47;;
18263;SDS011;9258;48.668;9.172;2022-07-29T04:08:46;3.90;;;3.50;;
18263;SDS011;9258;48.668;9.172;2022-07-29T04:11:48;4.68;;;3.45;;
18263;SDS011;9258;48.668;9.172;2022-07-29T04:14:49;3.65;;;3.35;;
18263;SDS011;9258;48.668;9.172;2022-07-29T04:17:52;3.90;;;3.55;;
18263;SDS011;9258;48.668;9.172;2022-07-29T04:20:53;4.28;;;3.63;;
18263;SDS011;9258;48.668;9.172;2022-07-29T04:23:55;4.75;;;3.60;;
18263;SDS011;9258;48.668;9.172;2022-07-29T04:26:56;4.40;;;3.78;;
18263;SDS011;9258;48.668;9.172;2022-07-29T04:29:58;4.78;;;3.67;;
18263;SDS011;9258;48.668;9.172;2022-07-29T04:33:02;3.85;;;3.45;;
18263;SDS011;9258;48.668;9.172;2022-07-29T04:36:05;3.88;;;3.58;;
18263;SDS011;9258;48.668;9.172;2022-07-29T04:39:06;3.65;;;3.35;;
18263;SDS011;9258;48.668;9.172;2022-07-29T04:42:08;3.40;;;3.10;;
18263;SDS011;9258;48.668;9.172;2022-07-29T04:45:09;3.10;;;2.80;;
18263;SDS011;9258;48.668;9.172;2022-07-29T04:48:12;3.40;;;3.10;;
18263;SDS011;9258;48.668;9.172;2022-07-29T04:51:14;3.72;;;3.28;;
18263;SDS011;9258;48.668;9.172;2022-07-29T04:54:16;4.50;;;3.42;;
18263;SDS011;9258;48.668;9.172;2022-07-29T04:57:18;2.90;;;2.70;;
18263;SDS011;9258;48.668;9.172;2022-07-29T05:00:19;3.22;;;2.75;;
18263;SDS011;9258;48.668;9.172;2022-07-29T05:03:24;5.40;;;3.25;;
18263;SDS011;9258;48.668;9.172;2022-07-29T05:06:25;3.25;;;2.60;;
18263;SDS011;9258;48.668;9.172;2022-07-29T05:09:27;3.35;;;3.05;;
18263;SDS011;9258;48.668;9.172;2022-07-29T05:12:28;3.25;;;2.35;;
18263;SDS011;9258;48.668;9.172;2022-07-29T05:15:30;3.38;;;2.80;;
18263;SDS011;9258;48.668;9.172;2022-07-29T05:18:33;3.47;;;2.30;;
18263;SDS011;9258;48.668;9.172;2022-07-29T05:21:34;2.85;;;2.60;;
18263;SDS011;9258;48.668;9.172;2022-07-29T05:24:36;2.83;;;2.53;;
18263;SDS011;9258;48.668;9.172;2022-07-29T05:27:38;2.40;;;2.20;;
18263;SDS011;9258;48.668;9.172;2022-07-29T05:30:39;2.63;;;2.30;;
18263;SDS011;9258;48.668;9.172;2022-07-29T05:33:42;2.72;;;2.30;;
18263;SDS011;9258;48.668;9.172;2022-07-29T05:36:44;3.00;;;2.67;;
18263;SDS011;9258;48.668;9.172;2022-07-29T05:39:46;2.05;;;1.92;;
18263;SDS011;9258;48.668;9.172;2022-07-29T05:42:47;3.70;;;2.15;;
18263;SDS011;9258;48.668;9.172;2022-07-29T05:45:49;3.03;;;2.25;;
18263;SDS011;9258;48.668;9.172;2022-07-29T05:48:52;4.15;;;2.30;;
18263;SDS011;9258;48.668;9.172;2022-07-29T05:51:53;2.38;;;2.17;;
18263;SDS011;9258;48.668;9.172;2022-07-29T05:54:55;2.42;;;2.22;;
18263;SDS011;9258;48.668;9.172;2022-07-29T05:57:56;3.25;;;2.10;;
18263;SDS011;9258;48.668;9.172;2022-07-29T06:00:58;2.13;;;1.88;;
18263;SDS011;9258;48.668;9.172;2022-07-29T06:04:01;2.95;;;2.38;;
18263;SDS011;9258;48.668;9.172;2022-07-29T06:07:03;2.20;;;2.00;;
18263;SDS011;9258;48.668;9.172;2022-07-29T06:10:05;2.33;;;2.00;;
18263;SDS011;9258;48.668;9.172;2022-07-29T06:13:07;3.72;;;2.03;;
18263;SDS011;9258;48.668;9.172;2022-07-29T06:16:08;2.55;;;2.10;;
18263;SDS011;9258;48.668;9.172;2022-07-29T06:19:11;2.78;;;2.10;;
18263;SDS011;9258;48.668;9.172;2022-07-29T06:22:14;3.67;;;1.90;;
18263;SDS011;9258;48.668;9.172;2022-07-29T06:25:16;2.33;;;2.05;;
18263;SDS011;9258;48.668;9.172;2022-07-29T06:28:18;3.80;;;1.80;;
18263;SDS011;9258;48.668;9.172;2022-07-29T06:31:19;2.20;;;2.00;;
18263;SDS011;9258;48.668;9.172;2022-07-29T06:34:23;2.13;;;1.92;;
18263;SDS011;9258;48.668;9.172;2022-07-29T06:37:26;3.03;;;1.83;;
18263;SDS011;9258;48.668;9.172;2022-07-29T06:40:28;2.50;;;2.00;;
18263;SDS011;9258;48.668;9.172;2022-07-29T06:43:47;7.03;;;2.20;;
18263;SDS011;9258;48.668;9.172;2022-07-29T06:46:51;1.50;;;1.40;;
18263;SDS011;9258;48.668;9.172;2022-07-29T06:49:54;3.65;;;2.08;;
18263;SDS011;9258;48.668;9.172;2022-07-29T06:52:56;1.95;;;1.83;;
18263;SDS011;9258;48.668;9.172;2022-07-29T06:55:57;3.70;;;2.17;;
18263;SDS011;9258;48.668;9.172;2022-07-29T06:59:00;3.30;;;1.88;;
18263;SDS011;9258;48.668;9.172;2022-07-29T07:02:01;5.40;;;2.35;;
18263;SDS011;9258;48.668;9.172;2022-07-29T07:05:06;3.55;;;2.28;;
18263;SDS011;9258;48.668;9.172;2022-07-29T07:08:08;5.18;;;2.00;;
18263;SDS011;9258;48.668;9.172;2022-07-29T07:11:10;2.60;;;2.35;;
18263;SDS011;9258;48.668;9.172;2022-07-29T07:14:11;2.40;;;2.20;;
18263;SDS011;9258;48.668;9.172;2022-07-29T07:17:13;2.67;;;2.45;;
18263;SDS011;9258;48.668;9.172;2022-07-29T07:20:16;2.80;;;2.60;;
18263;SDS011;9258;48.668;9.172;2022-07-29T07:23:19;2.80;;;2.58;;
18263;SDS011;9258;48.668;9.172;2022-07-29T07:26:21;4.25;;;3.10;;
18263;SDS011;9258;48.668;9.172;2022-07-29T07:29:23;3.78;;;2.47;;
18263;SDS011;9258;48.668;9.172;2022-07-29T07:32:25;2.90;;;2.60;;
18263;SDS011;9258;48.668;9.172;2022-07-29T07:35:31;5.00;;;2.38;;
18263;SDS011;9258;48.668;9.172;2022-07-29T07:38:33;3.45;;;2.70;;
18263;SDS011;9258;48.668;9.172;2022-07-29T07:41:35;3.38;;;2.60;;
18263;SDS011;9258;48.668;9.172;2022-07-29T07:44:37;5.55;;;3.08;;
18263;SDS011;9258;48.668;9.172;2022-07-29T07:47:39;3.75;;;3.00;;
18263;SDS011;9258;48.668;9.172;2022-07-29T07:50:42;3.35;;;2.90;;
18263;SDS011;9258;48.668;9.172;2022-07-29T07:53:44;3.67;;;2.92;;
18263;SDS011;9258;48.668;9.172;2022-07-29T07:56:49;3.30;;;3.00;;
18263;SDS011;9258;48.668;9.172;2022-07-29T07:59:51;3.45;;;2.97;;
18263;SDS011;9258;48.668;9.172;2022-07-29T08:02:54;3.67;;;3.00;;
18263;SDS011;9258;48.668;9.172;2022-07-29T08:05:57;3.85;;;3.40;;
18263;SDS011;9258;48.668;9.172;2022-07-29T08:08:59;3.58;;;3.25;;
18263;SDS011;9258;48.668;9.172;2022-07-29T08:12:02;6.03;;;3.53;;
18263;SDS011;9258;48.668;9.172;2022-07-29T08:15:06;4.43;;;3.28;;
18263;SDS011;9258;48.668;9.172;2022-07-29T08:18:09;4.38;;;2.95;;
18263;SDS011;9258;48.668;9.172;2022-07-29T08:21:13;3.88;;;3.30;;
18263;SDS011;9258;48.668;9.172;2022-07-29T08:24:16;3.00;;;2.80;;
18263;SDS011;9258;48.668;9.172;2022-07-29T08:27:40;3.40;;;3.10;;
18263;SDS011;9258;48.668;9.172;2022-07-29T08:30:41;6.68;;;3.00;;
18263;SDS011;9258;48.668;9.172;2022-07-29T08:33:44;3.00;;;2.70;;
18263;SDS011;9258;48.668;9.172;2022-07-29T08:36:48;3.75;;;3.45;;
18263;SDS011;9258;48.668;9.172;2022-07-29T08:39:50;3.13;;;2.83;;
18263;SDS011;9258;48.668;9.172;2022-07-29T08:42:52;6.45;;;3.45;;
18263;SDS011;9258;48.668;9.172;2022-07-29T08:45:54;3.92;;;2.95;;
18263;SDS011;9258;48.668;9.172;2022-07-29T08:48:57;5.43;;;3.40;;
18263;SDS011;9258;48.668;9.172;2022-07-29T08:52:01;5.15;;;3.60;;
18263;SDS011;9258;48.668;9.172;2022-07-29T08:55:06;3.88;;;3.47;;
18263;SDS011;9258;48.668;9.172;2022-07-29T08:58:09;4.10;;;3.40;;
18263;SDS011;9258;48.668;9.172;2022-07-29T09:01:14;4.18;;;3.60;;
18263;SDS011;9258;48.668;9.172;2022-07-29T09:04:24;8.35;;;3.42;;
18263;SDS011;9258;48.668;9.172;2022-07-29T09:07:33;3.35;;;3.05;;
18263;SDS011;9258;48.668;9.172;2022-07-29T09:10:36;5.57;;;3.60;;
18263;SDS011;9258;48.668;9.172;2022-07-29T09:16:52;5.93;;;3.58;;
18263;SDS011;9258;48.668;9.172;2022-07-29T09:19:56;3.72;;;3.25;;
18263;SDS011;9258;48.668;9.172;2022-07-29T09:23:15;4.53;;;3.92;;
18263;SDS011;9258;48.668;9.172;2022-07-29T09:26:18;6.07;;;3.65;;
18263;SDS011;9258;48.668;9.172;2022-07-29T09:29:23;4.13;;;3.83;;
18263;SDS011;9258;48.668;9.172;2022-07-29T09:32:27;4.00;;;3.60;;
18263;SDS011;9258;48.668;9.172;2022-07-29T09:35:43;4.05;;;3.75;;
18263;SDS011;9258;48.668;9.172;2022-07-29T09:51:25;4.93;;;4.43;;
18263;SDS011;9258;48.668;9.172;2022-07-29T10:28:54;6.00;;;4.40;;
18263;SDS011;9258;48.668;9.172;2022-07-29T10:36:32;4.72;;;4.32;;
18263;SDS011;9258;48.668;9.172;2022-07-29T10:40:23;4.88;;;4.53;;
18263;SDS011;9258;48.668;9.172;2022-07-29T10:44:04;5.40;;;4.90;;
18263;SDS011;9258;48.668;9.172;2022-07-29T10:47:19;5.95;;;4.65;;
18263;SDS011;9258;48.668;9.172;2022-07-29T10:50:23;5.10;;;4.70;;
18263;SDS011;9258;48.668;9.172;2022-07-29T10:56:47;4.70;;;4.10;;
18263;SDS011;9258;48.668;9.172;2022-07-29T11:03:43;4.65;;;4.30;;
18263;SDS011;9258;48.668;9.172;2022-07-29T11:10:20;6.80;;;4.10;;
18263;SDS011;9258;48.668;9.172;2022-07-29T11:17:00;6.13;;;3.15;;
18263;SDS011;9258;48.668;9.172;2022-07-29T11:23:36;5.57;;;4.00;;
18263;SDS011;9258;48.668;9.172;2022-07-29T11:26:39;13.10;;;4.85;;
18263;SDS011;9258;48.668;9.172;2022-07-29T11:29:48;6.20;;;4.55;;
18263;SDS011;9258;48.668;9.172;2022-07-29T11:32:52;7.03;;;3.80;;
18263;SDS011;9258;48.668;9.172;2022-07-29T11:36:11;4.53;;;4.13;;
18263;SDS011;9258;48.668;9.172;2022-07-29T11:39:24;6.50;;;4.53;;
18263;SDS011;9258;48.668;9.172;2022-07-29T11:42:37;5.72;;;4.40;;
18263;SDS011;9258;48.668;9.172;2022-07-29T11:45:46;3.45;;;3.13;;
18263;SDS011;9258;48.668;9.172;2022-07-29T11:48:47;4.95;;;2.92;;
18263;SDS011;9258;48.668;9.172;2022-07-29T11:51:51;4.93;;;2.20;;
18263;SDS011;9258;48.668;9.172;2022-07-29T11:54:56;2.90;;;2.60;;
18263;SDS011;9258;48.668;9.172;2022-07-29T11:57:59;8.32;;;2.45;;
18263;SDS011;9258;48.668;9.172;2022-07-29T12:01:01;4.65;;;2.35;;
18263;SDS011;9258;48.668;9.172;2022-07-29T12:04:03;3.53;;;2.78;;
18263;SDS011;9258;48.668;9.172;2022-07-29T12:07:07;3.38;;;2.50;;
18263;SDS011;9258;48.668;9.172;2022-07-29T12:10:10;3.72;;;2.80;;
18263;SDS011;9258;48.668;9.172;2022-07-29T12:13:12;3.47;;;2.05;;
18263;SDS011;9258;48.668;9.172;2022-07-29T12:16:14;4.05;;;2.22;;
18263;SDS011;9258;48.668;9.172;2022-07-29T12:19:16;4.18;;;3.08;;
18263;SDS011;9258;48.668;9.172;2022-07-29T12:22:25;6.45;;;3.20;;
18263;SDS011;9258;48.668;9.172;2022-07-29T12:25:27;7.68;;;3.55;;
18263;SDS011;9258;48.668;9.172;2022-07-29T12:28:36;8.90;;;3.60;;
18263;SDS011;9258;48.668;9.172;2022-07-29T12:31:38;8.10;;;3.75;;
18263;SDS011;9258;48.668;9.172;2022-07-29T12:34:40;4.40;;;3.38;;
18263;SDS011;9258;48.668;9.172;2022-07-29T12:37:43;6.72;;;3.53;;
18263;SDS011;9258;48.668;9.172;2022-07-29T12:40:46;3.42;;;3.03;;
18263;SDS011;9258;48.668;9.172;2022-07-29T12:43:52;3.20;;;2.85;;
18263;SDS011;9258;48.668;9.172;2022-07-29T12:47:01;5.63;;;3.17;;
18263;SDS011;9258;48.668;9.172;2022-07-29T12:50:09;3.28;;;2.95;;
18263;SDS011;9258;48.668;9.172;2022-07-29T12:53:13;3.80;;;2.70;;
18263;SDS011;9258;48.668;9.172;2022-07-29T12:56:15;3.45;;;3.15;;
18263;SDS011;9258;48.668;9.172;2022-07-29T12:59:18;3.55;;;2.50;;
18263;SDS011;9258;48.668;9.172;2022-07-29T13:02:20;3.40;;;2.60;;
18263;SDS011;9258;48.668;9.172;2022-07-29T13:05:23;2.80;;;2.60;;
18263;SDS011;9258;48.668;9.172;2022-07-29T13:08:26;4.15;;;3.00;;
18263;SDS011;9258;48.668;9.172;2022-07-29T13:11:29;5.68;;;3.90;;
18263;SDS011;9258;48.668;9.172;2022-07-29T13:14:31;6.15;;;4.60;;
18263;SDS011;9258;48.668;9.172;2022-07-29T13:17:39;6.82;;;4.90;;
18263;SDS011;9258;48.668;9.172;2022-07-29T13:20:42;5.53;;;4.38;;
18263;SDS011;9258;48.668;9.172;2022-07-29T13:23:45;4.50;;;3.40;;
18263;SDS011;9258;48.668;9.172;2022-07-29T13:26:47;5.60;;;4.03;;
18263;SDS011;9258;48.668;9.172;2022-07-29T13:29:49;5.13;;;4.45;;
18263;SDS011;9258;48.668;9.172;2022-07-29T13:32:52;6.50;;;4.28;;
18263;SDS011;9258;48.668;9.172;2022-07-29T13:35:55;5.05;;;4.30;;
18263;SDS011;9258;48.668;9.172;2022-07-29T13:38:57;4.53;;;3.83;;
18263;SDS011;9258;48.668;9.172;2022-07-29T13:42:01;4.72;;;4.22;;
18263;SDS011;9258;48.668;9.172;2022-07-29T13:45:02;4.65;;;4.25;;
18263;SDS011;9258;48.668;9.172;2022-07-29T13:48:06;5.43;;;4.90;;
18263;SDS011;9258;48.668;9.172;2022-07-29T13:51:08;4.75;;;4.35;;
18263;SDS011;9258;48.668;9.172;2022-07-29T13:54:10;4.43;;;4.03;;
18263;SDS011;9258;48.668;9.172;2022-07-29T13:57:13;5.07;;;4.57;;
18263;SDS011;9258;48.668;9.172;2022-07-29T14:00:15;6.72;;;4.90;;
18263;SDS011;9258;48.668;9.172;2022-07-29T14:03:18;5.53;;;5.03;;
18263;SDS011;9258;48.668;9.172;2022-07-29T14:06:20;5.85;;;4.75;;
18263;SDS011;9258;48.668;9.172;2022-07-29T14:09:22;5.97;;;4.93;;
18263;SDS011;9258;48.668;9.172;2022-07-29T14:12:24;5.22;;;4.47;;
18263;SDS011;9258;48.668;9.172;2022-07-29T14:15:25;5.40;;;4.90;;
18263;SDS011;9258;48.668;9.172;2022-07-29T14:18:27;5.88;;;5.28;;
18263;SDS011;9258;48.668;9.172;2022-07-29T14:21:28;7.10;;;4.90;;
18263;SDS011;9258;48.668;9.172;2022-07-29T14:24:31;5.47;;;4.97;;
18263;SDS011;9258;48.668;9.172;2022-07-29T14:27:33;5.60;;;4.80;;
18263;SDS011;9258;48.668;9.172;2022-07-29T14:30:35;7.22;;;5.22;;
18263;SDS011;9258;48.668;9.172;2022-07-29T14:33:36;8.65;;;5.22;;
18263;SDS011;9258;48.668;9.172;2022-07-29T14:36:38;6.75;;;4.65;;
18263;SDS011;9258;48.668;9.172;2022-07-29T14:39:41;6.07;;;4.78;;
18263;SDS011;9258;48.668;9.172;2022-07-29T14:42:42;5.03;;;4.55;;
18263;SDS011;9258;48.668;9.172;2022-07-29T14:45:44;5.35;;;4.85;;
18263;SDS011;9258;48.668;9.172;2022-07-29T14:48:45;5.28;;;4.75;;
18263;SDS011;9258;48.668;9.172;2022-07-29T14:51:47;4.93;;;4.38;;
18263;SDS011;9258;48.668;9.172;2022-07-29T14:54:49;5.10;;;4.70;;
18263;SDS011;9258;48.668;9.172;2022-07-29T14:57:51;8.20;;;4.72;;
18263;SDS011;9258;48.668;9.172;2022-07-29T15:00:53;5.43;;;4.70;;
18263;SDS011;9258;48.668;9.172;2022-07-29T15:03:56;5.45;;;4.95;;
18263;SDS011;9258;48.668;9.172;2022-07-29T15:06:57;6.10;;;4.68;;
18263;SDS011;9258;48.668;9.172;2022-07-29T15:10:00;4.45;;;3.97;;
18263;SDS011;9258;48.668;9.172;2022-07-29T15:13:02;4.70;;;4.30;;
18263;SDS011;9258;48.668;9.172;2022-07-29T15:16:04;5.15;;;4.53;;
18263;SDS011;9258;48.668;9.172;2022-07-29T15:19:06;5.97;;;4.75;;
18263;SDS011;9258;48.668;9.172;2022-07-29T15:22:08;5.32;;;4.82;;
18263;SDS011;9258;48.668;9.172;2022-07-29T15:25:10;5.28;;;4.78;;
18263;SDS011;9258;48.668;9.172;2022-07-29T15:28:12;5.70;;;5.07;;
18263;SDS011;9258;48.668;9.172;2022-07-29T15:31:13;5.45;;;4.97;;
18263;SDS011;9258;48.668;9.172;2022-07-29T15:34:15;5.22;;;4.80;;
18263;SDS011;9258;48.668;9.172;2022-07-29T15:37:16;7.38;;;5.35;;
18263;SDS011;9258;48.668;9.172;2022-07-29T15:40:19;5.65;;;4.93;;
18263;SDS011;9258;48.668;9.172;2022-07-29T15:43:21;5.80;;;5.30;;
18263;SDS011;9258;48.668;9.172;2022-07-29T15:46:22;5.93;;;5.43;;
18263;SDS011;9258;48.668;9.172;2022-07-29T15:49:41;7.10;;;4.95;;
18263;SDS011;9258;48.668;9.172;2022-07-29T15:52:43;7.80;;;5.63;;
18263;SDS011;9258;48.668;9.172;2022-07-29T15:55:47;7.00;;;5.15;;
18263;SDS011;9258;48.668;9.172;2022-07-29T15:58:48;6.40;;;4.97;;
18263;SDS011;9258;48.668;9.172;2022-07-29T16:01:50;5.68;;;5.15;;
18263;SDS011;9258;48.668;9.172;2022-07-29T16:04:52;7.00;;;5.55;;
18263;SDS011;9258;48.668;9.172;2022-07-29T16:07:53;6.57;;;5.07;;
18263;SDS011;9258;48.668;9.172;2022-07-29T16:10:57;5.18;;;4.68;;
18263;SDS011;9258;48.668;9.172;2022-07-29T16:13:58;5.45;;;4.93;;
18263;SDS011;9258;48.668;9.172;2022-07-29T16:17:00;5.25;;;4.75;;
18263;SDS011;9258;48.668;9.172;2022-07-29T16:20:03;5.20;;;4.80;;
18263;SDS011;9258;48.668;9.172;2022-07-29T16:23:05;4.80;;;4.40;;
18263;SDS011;9258;48.668;9.172;2022-07-29T16:26:10;5.32;;;4.65;;
18263;SDS011;9258;48.668;9.172;2022-07-29T16:29:11;5.57;;;5.07;;
18263;SDS011;9258;48.668;9.172;2022-07-29T16:32:13;5.60;;;5.10;;
18263;SDS011;9258;48.668;9.172;2022-07-29T16:35:14;5.10;;;4.60;;
18263;SDS011;9258;48.668;9.172;2022-07-29T16:38:16;5.78;;;4.47;;
18263;SDS011;9258;48.668;9.172;2022-07-29T16:41:18;4.47;;;4.10;;
18263;SDS011;9258;48.668;9.172;2022-07-29T16:44:20;5.97;;;4.50;;
18263;SDS011;9258;48.668;9.172;2022-07-29T16:47:21;4.47;;;3.85;;
18263;SDS011;9258;48.668;9.172;2022-07-29T16:50:23;4.85;;;4.38;;
18263;SDS011;9258;48.668;9.172;2022-07-29T16:53:26;5.43;;;3.97;;
18263;SDS011;9258;48.668;9.172;2022-07-29T16:56:29;4.65;;;4.13;;
18263;SDS011;9258;48.668;9.172;2022-07-29T16:59:30;5.07;;;3.63;;
18263;SDS011;9258;48.668;9.172;2022-07-29T17:02:32;4.65;;;3.83;;
18263;SDS011;9258;48.668;9.172;2022-07-29T17:05:33;5.55;;;3.90;;
18263;SDS011;9258;48.668;9.172;2022-07-29T17:08:35;4.65;;;3.85;;
18263;SDS011;9258;48.668;9.172;2022-07-29T17:11:38;5.43;;;3.83;;
18263;SDS011;9258;48.668;9.172;2022-07-29T17:14:40;3.75;;;3.35;;
18263;SDS011;9258;48.668;9.172;2022-07-29T17:17:42;4.32;;;3.78;;
18263;SDS011;9258;48.668;9.172;2022-07-29T17:20:43;4.35;;;3.90;;
18263;SDS011;9258;48.668;9.172;2022-07-29T17:23:45;4.80;;;4.10;;
18263;SDS011;9258;48.668;9.172;2022-07-29T17:26:48;5.53;;;4.60;;
18263;SDS011;9258;48.668;9.172;2022-07-29T17:29:50;4.78;;;4.07;;
18263;SDS011;9258;48.668;9.172;2022-07-29T17:32:51;4.82;;;4.35;;
18263;SDS011;9258;48.668;9.172;2022-07-29T17:35:53;6.00;;;4.22;;
18263;SDS011;9258;48.668;9.172;2022-07-29T17:39:12;4.82;;;4.32;;
18263;SDS011;9258;48.668;9.172;2022-07-29T17:42:15;5.00;;;4.60;;
18263;SDS011;9258;48.668;9.172;2022-07-29T17:45:17;4.47;;;3.92;;
18263;SDS011;9258;48.668;9.172;2022-07-29T17:48:18;5.65;;;5.00;;
18263;SDS011;9258;48.668;9.172;2022-07-29T17:51:20;5.22;;;4.72;;
18263;SDS011;9258;48.668;9.172;2022-07-29T17:54:22;6.90;;;4.97;;
18263;SDS011;9258;48.668;9.172;2022-07-29T17:57:25;5.70;;;4.80;;
18263;SDS011;9258;48.668;9.172;2022-07-29T18:00:26;4.68;;;4.28;;
18263;SDS011;9258;48.668;9.172;2022-07-29T18:03:28;5.63;;;4.43;;
18263;SDS011;9258;48.668;9.172;2022-07-29T18:06:29;4.90;;;4.50;;
18263;SDS011;9258;48.668;9.172;2022-07-29T18:09:31;5.45;;;4.90;;
18263;SDS011;9258;48.668;9.172;2022-07-29T18:12:33;4.47;;;4.07;;
18263;SDS011;9258;48.668;9.172;2022-07-29T18:15:35;4.30;;;4.00;;
18263;SDS011;9258;48.668;9.172;2022-07-29T18:18:36;5.10;;;4.57;;
18263;SDS011;9258;48.668;9.172;2022-07-29T18:21:38;5.25;;;4.07;;
18263;SDS011;9258;48.668;9.172;2022-07-29T18:24:40;4.50;;;4.10;;
18263;SDS011;9258;48.668;9.172;2022-07-29T18:27:42;4.60;;;3.80;;
18263;SDS011;9258;48.668;9.172;2022-07-29T18:30:44;4.05;;;3.75;;
18263;SDS011;9258;48.668;9.172;2022-07-29T18:33:46;4.30;;;3.75;;
18263;SDS011;9258;48.668;9.172;2022-07-29T18:36:47;5.95;;;4.32;;
18263;SDS011;9258;48.668;9.172;2022-07-29T18:39:49;5.03;;;3.85;;
18263;SDS011;9258;48.668;9.172;2022-07-29T18:42:52;5.78;;;3.80;;
18263;SDS011;9258;48.668;9.172;2022-07-29T18:45:53;5.00;;;3.58;;
18263;SDS011;9258;48.668;9.172;2022-07-29T18:48:54;3.85;;;3.38;;
18263;SDS011;9258;48.668;9.172;2022-07-29T18:51:56;4.45;;;3.75;;
18263;SDS011;9258;48.668;9.172;2022-07-29T18:54:58;4.65;;;3.30;;
18263;SDS011;9258;48.668;9.172;2022-07-29T18:58:02;3.78;;;3.42;;
18263;SDS011;9258;48.668;9.172;2022-07-29T19:01:04;3.83;;;3.47;;
18263;SDS011;9258;48.668;9.172;2022-07-29T19:04:05;5.70;;;3.63;;
18263;SDS011;9258;48.668;9.172;2022-07-29T19:07:07;5.30;;;3.60;;
18263;SDS011;9258;48.668;9.172;2022-07-29T19:10:08;4.13;;;3.72;;
18263;SDS011;9258;48.668;9.172;2022-07-29T19:13:12;3.83;;;3.45;;
18263;SDS011;9258;48.668;9.172;2022-07-29T19:16:14;3.72;;;3.35;;
18263;SDS011;9258;48.668;9.172;2022-07-29T19:19:15;3.90;;;3.60;;
18263;SDS011;9258;48.668;9.172;2022-07-29T19:22:17;4.00;;;3.60;;
18263;SDS011;9258;48.668;9.172;2022-07-29T19:25:18;4.38;;;3.80;;
18263;SDS011;9258;48.668;9.172;2022-07-29T19:28:21;4.25;;;3.83;;
18263;SDS011;9258;48.668;9.172;2022-07-29T19:31:22;4.72;;;3.40;;
18263;SDS011;9258;48.668;9.172;2022-07-29T19:34:24;4.50;;;3.53;;
18263;SDS011;9258;48.668;9.172;2022-07-29T19:37:26;4.25;;;3.10;;
18263;SDS011;9258;48.668;9.172;2022-07-29T19:40:27;5.78;;;3.70;;
18263;SDS011;9258;48.668;9.172;2022-07-29T19:43:31;4.45;;;3.70;;
18263;SDS011;9258;48.668;9.172;2022-07-29T19:46:33;5.18;;;3.60;;
18263;SDS011;9258;48.668;9.172;2022-07-29T19:49:35;4.82;;;3.70;;
18263;SDS011;9258;48.668;9.172;2022-07-29T19:52:38;4.70;;;3.25;;
18263;SDS011;9258;48.668;9.172;2022-07-29T19:55:39;4.25;;;3.50;;